Time;durP1;ratioP1;P1;durP2;ratioP2;P2;SDS_P1;SDS_P2;PMS_P1;PMS_P2;Temp;Humidity;BMP_temperature;BMP_pressure;BME280_temperature;BME280_humidity;BME280_pressure;Samples;Min_cycle;Max_cycle;Signal;HPM_P1;HPM_P2
2022/04/05 00:02:19;;;;;;;15.52;5.90;;;;;;;;;;5130231;28;20076;-74
2022/04/05 00:04:47;;;;;;;16.45;6.70;;;;;;;;;;5130710;28;20023;-74
2022/04/05 00:07:14;;;;;;;21.52;6.18;;;;;;;;;;5115256;28;20053;-74
2022/04/05 00:09:42;;;;;;;22.33;6.90;;;;;;;;;;5115481;28;20344;-74
2022/04/05 00:12:10;;;;;;;31.42;5.95;;;;;;;;;;5130710;28;20114;-74
2022/04/05 00:14:38;;;;;;;29.45;6.53;;;;;;;;;;5129626;28;20271;-74
2022/04/05 00:17:04;;;;;;;18.67;5.07;;;;;;;;;;5128613;28;20013;-74
2022/04/05 00:19:34;;;;;;;22.05;6.63;;;;;;;;;;5132471;28;20016;-74
2022/04/05 00:22:04;;;;;;;22.95;6.88;;;;;;;;;;5134328;28;20079;-74
2022/04/05 00:24:34;;;;;;;17.58;6.93;;;;;;;;;;5129232;28;20024;-74
2022/04/05 00:27:02;;;;;;;17.30;6.32;;;;;;;;;;5132063;28;20042;-74
2022/04/05 00:29:29;;;;;;;20.30;6.63;;;;;;;;;;5115987;28;20020;-74
2022/04/05 00:31:56;;;;;;;22.40;6.25;;;;;;;;;;5133798;28;20027;-74
2022/04/05 00:34:25;;;;;;;18.05;5.45;;;;;;;;;;5114430;28;20045;-74
2022/04/05 00:36:56;;;;;;;21.23;5.85;;;;;;;;;;5132836;28;20025;-74
2022/04/05 00:39:26;;;;;;;22.38;6.20;;;;;;;;;;5130706;28;20020;-74
2022/04/05 00:41:56;;;;;;;34.67;8.23;;;;;;;;;;5131688;28;20049;-73
2022/04/05 00:44:26;;;;;;;24.42;8.75;;;;;;;;;;5134126;28;20020;-74
2022/04/05 00:46:58;;;;;;;23.38;5.45;;;;;;;;;;5114751;28;20031;-74
2022/04/05 00:49:32;;;;;;;19.95;6.85;;;;;;;;;;5129853;28;20011;-74
2022/04/05 00:52:01;;;;;;;26.17;5.72;;;;;;;;;;5130727;28;20075;-74
2022/04/05 00:54:29;;;;;;;23.50;5.68;;;;;;;;;;5134512;28;20122;-74
2022/04/05 00:56:59;;;;;;;19.70;5.68;;;;;;;;;;5116172;28;20045;-73
2022/04/05 00:59:30;;;;;;;24.25;6.45;;;;;;;;;;5133456;28;20029;-74
2022/04/05 01:01:59;;;;;;;31.98;10.55;;;;;;;;;;5133148;28;20003;-74
2022/04/05 01:04:31;;;;;;;20.50;9.98;;;;;;;;;;5131391;28;20034;-74
2022/04/05 01:07:00;;;;;;;53.22;14.95;;;;;;;;;;5131916;28;20095;-74
2022/04/05 01:09:28;;;;;;;;;;;;;;;;;;5132441;28;20039;-74
2022/04/05 01:11:56;;;;;;;49.35;23.90;;;;;;;;;;5130751;28;19943;-74
2022/04/05 01:14:27;;;;;;;81.38;42.97;;;;;;;;;;5132840;28;20015;-74
2022/04/05 01:16:54;;;;;;;40.38;17.50;;;;;;;;;;5134647;28;20026;-74
2022/04/05 01:19:23;;;;;;;25.15;7.63;;;;;;;;;;5134633;28;20020;-73
2022/04/05 01:21:53;;;;;;;21.75;6.32;;;;;;;;;;5121804;28;20015;-74
2022/04/05 01:24:20;;;;;;;71.15;35.47;;;;;;;;;;5118700;28;20043;-74
2022/04/05 01:26:48;;;;;;;80.25;39.90;;;;;;;;;;5131912;28;20034;-74
2022/04/05 01:29:19;;;;;;;35.17;16.40;;;;;;;;;;5133249;28;20023;-74
2022/04/05 01:31:51;;;;;;;30.35;10.50;;;;;;;;;;5116023;28;20038;-75
2022/04/05 01:34:23;;;;;;;133.52;62.15;;;;;;;;;;5151367;22;20047;-76
2022/04/05 01:36:54;;;;;;;95.55;44.97;;;;;;;;;;5131418;28;20023;-76
2022/04/05 01:39:25;;;;;;;87.63;34.45;;;;;;;;;;5130112;28;20098;-76
2022/04/05 01:41:53;;;;;;;128.30;56.45;;;;;;;;;;5122378;28;20366;-74
2022/04/05 01:44:20;;;;;;;36.80;15.18;;;;;;;;;;5124031;28;20118;-73
2022/04/05 01:46:47;;;;;;;35.72;19.17;;;;;;;;;;5124485;28;20031;-74
2022/04/05 01:49:15;;;;;;;61.03;20.80;;;;;;;;;;5125351;28;20020;-74
2022/04/05 01:51:43;;;;;;;60.63;23.63;;;;;;;;;;5104878;28;20031;-73
2022/04/05 01:54:12;;;;;;;64.95;26.27;;;;;;;;;;5103036;28;20310;-74
2022/04/05 01:56:49;;;;;;;54.90;25.00;;;;;;;;;;5123054;28;20047;-75
2022/04/05 01:59:17;;;;;;;44.88;18.30;;;;;;;;;;5120213;28;20016;-74
2022/04/05 02:01:43;;;;;;;36.55;12.35;;;;;;;;;;5122338;28;20341;-74
2022/04/05 02:04:12;;;;;;;41.40;12.50;;;;;;;;;;5123573;28;20024;-74
2022/04/05 02:06:39;;;;;;;49.30;12.10;;;;;;;;;;5123718;28;20031;-74
2022/04/05 02:09:07;;;;;;;53.65;13.38;;;;;;;;;;5106324;28;20028;-74
2022/04/05 02:11:35;;;;;;;45.70;12.80;;;;;;;;;;5124582;28;20027;-74
2022/04/05 02:14:02;;;;;;;55.42;11.45;;;;;;;;;;5124126;28;20043;-75
2022/04/05 02:16:30;;;;;;;75.40;15.77;;;;;;;;;;5127529;28;20425;-74
2022/04/05 02:18:58;;;;;;;65.97;14.20;;;;;;;;;;5126309;28;20030;-74
2022/04/05 02:21:24;;;;;;;77.25;12.77;;;;;;;;;;5126822;28;20481;-75
2022/04/05 02:23:51;;;;;;;50.85;12.73;;;;;;;;;;5121170;28;20019;-76
2022/04/05 02:26:18;;;;;;;46.10;11.18;;;;;;;;;;5121335;28;20035;-75
2022/04/05 02:28:45;;;;;;;64.43;11.40;;;;;;;;;;5122664;28;20012;-76
2022/04/05 02:31:11;;;;;;;57.75;9.93;;;;;;;;;;5138672;27;20398;-74
2022/04/05 02:33:38;;;;;;;75.68;13.23;;;;;;;;;;5103921;28;20071;-74
2022/04/05 02:36:05;;;;;;;48.97;9.57;;;;;;;;;;5121766;28;20027;-74
2022/04/05 02:38:32;;;;;;;52.22;11.38;;;;;;;;;;5119883;28;20024;-74
2022/04/05 02:40:59;;;;;;;55.95;12.50;;;;;;;;;;5117998;28;20030;-75
2022/04/05 02:43:25;;;;;;;52.55;10.48;;;;;;;;;;5117134;28;20038;-74
2022/04/05 02:45:55;;;;;;;41.35;9.48;;;;;;;;;;5117368;28;20032;-75
2022/04/05 02:48:22;;;;;;;31.77;8.43;;;;;;;;;;5117557;28;20022;-78
2022/04/05 02:50:50;;;;;;;37.50;8.45;;;;;;;;;;5099477;28;20016;-77
2022/04/05 02:53:16;;;;;;;34.35;10.10;;;;;;;;;;5116341;28;20022;-77
2022/04/05 02:55:45;;;;;;;32.50;9.93;;;;;;;;;;5115115;28;20347;-76
2022/04/05 02:58:14;;;;;;;54.78;10.55;;;;;;;;;;5113495;28;20023;-76
2022/04/05 03:00:41;;;;;;;134.55;17.02;;;;;;;;;;5113213;27;20274;-76
2022/04/05 03:03:08;;;;;;;60.13;12.52;;;;;;;;;;5112123;28;20076;-76
2022/04/05 03:05:39;;;;;;;54.17;10.60;;;;;;;;;;5111989;28;20092;-76
2022/04/05 03:08:06;;;;;;;60.47;11.68;;;;;;;;;;5113549;28;20347;-76
2022/04/05 03:10:33;;;;;;;59.80;12.57;;;;;;;;;;5115063;28;20316;-78
2022/04/05 03:13:01;;;;;;;49.45;10.85;;;;;;;;;;5097751;22;20052;-77
2022/04/05 03:15:35;;;;;;;32.25;8.52;;;;;;;;;;5035250;28;20013;-77
2022/04/05 03:18:02;;;;;;;46.00;8.43;;;;;;;;;;5106425;22;20033;-76
2022/04/05 03:20:28;;;;;;;49.53;10.00;;;;;;;;;;5073945;28;20013;-75
2022/04/05 03:22:56;;;;;;;55.65;10.77;;;;;;;;;;5072271;28;20103;-76
2022/04/05 03:25:25;;;;;;;36.03;7.75;;;;;;;;;;5072740;28;20021;-76
2022/04/05 03:27:52;;;;;;;50.92;9.55;;;;;;;;;;5058385;28;20070;-77
2022/04/05 03:30:22;;;;;;;25.45;5.75;;;;;;;;;;5073814;28;20307;-76
2022/04/05 03:32:49;;;;;;;29.23;5.40;;;;;;;;;;5056679;28;20078;-76
2022/04/05 03:35:17;;;;;;;25.42;6.57;;;;;;;;;;5056399;28;20013;-77
2022/04/05 03:37:50;;;;;;;45.03;7.65;;;;;;;;;;5072980;28;20067;-78
2022/04/05 03:40:16;;;;;;;34.17;6.32;;;;;;;;;;5058516;28;20024;-77
2022/04/05 03:42:43;;;;;;;29.23;6.75;;;;;;;;;;5082000;22;20140;-76
2022/04/05 03:45:09;;;;;;;25.75;7.07;;;;;;;;;;5082156;28;20013;-76
2022/04/05 03:47:36;;;;;;;33.95;6.72;;;;;;;;;;5077665;28;20036;-75
2022/04/05 03:50:02;;;;;;;31.98;5.75;;;;;;;;;;5057182;28;20024;-75
2022/04/05 03:52:29;;;;;;;34.13;6.25;;;;;;;;;;5056515;28;20028;-75
2022/04/05 03:55:01;;;;;;;30.65;7.85;;;;;;;;;;5057388;28;20017;-75
2022/04/05 03:57:27;;;;;;;35.58;7.07;;;;;;;;;;5073118;28;20283;-75
2022/04/05 03:59:53;;;;;;;37.55;7.85;;;;;;;;;;5073677;28;20021;-75
2022/04/05 04:02:21;;;;;;;20.30;5.35;;;;;;;;;;5075778;28;20406;-76
2022/04/05 04:04:52;;;;;;;60.10;9.15;;;;;;;;;;5060558;28;20073;-75
2022/04/05 04:07:20;;;;;;;20.40;5.35;;;;;;;;;;5056834;28;20036;-75
2022/04/05 04:09:46;;;;;;;36.28;7.57;;;;;;;;;;5073495;28;20326;-74
2022/04/05 04:12:13;;;;;;;49.22;10.30;;;;;;;;;;5056064;28;20028;-75
2022/04/05 04:14:40;;;;;;;40.75;8.90;;;;;;;;;;5097833;22;20040;-74
2022/04/05 04:17:08;;;;;;;49.17;8.80;;;;;;;;;;5058069;23;20087;-76
2022/04/05 04:19:34;;;;;;;39.40;6.78;;;;;;;;;;5053650;28;20028;-74
2022/04/05 04:22:01;;;;;;;42.63;8.98;;;;;;;;;;5034194;28;20295;-76
2022/04/05 04:24:30;;;;;;;39.58;6.35;;;;;;;;;;5032954;28;20486;-74
2022/04/05 04:27:01;;;;;;;33.60;7.17;;;;;;;;;;5018048;28;20040;-76
2022/04/05 04:29:50;;;;;;;35.42;6.75;;;;;;;;;;5050869;28;20029;-75
2022/04/05 04:32:30;;;;;;;37.75;6.35;;;;;;;;;;5049950;28;20025;-77
2022/04/05 04:34:59;;;;;;;35.90;6.97;;;;;;;;;;5049595;28;20216;-75
2022/04/05 04:37:25;;;;;;;31.70;7.15;;;;;;;;;;5034383;28;20041;-76
2022/04/05 04:39:52;;;;;;;43.90;8.95;;;;;;;;;;5053918;28;20013;-76
2022/04/05 04:42:19;;;;;;;25.92;5.43;;;;;;;;;;5073876;22;20051;-76
2022/04/05 04:44:47;;;;;;;32.95;7.47;;;;;;;;;;5093488;28;20021;-76
2022/04/05 04:47:16;;;;;;;31.10;9.00;;;;;;;;;;5091906;28;20032;-76
2022/04/05 04:49:43;;;;;;;25.88;7.13;;;;;;;;;;5094531;28;20069;-75
2022/04/05 04:52:10;;;;;;;37.50;8.40;;;;;;;;;;5096399;28;20053;-76
2022/04/05 04:54:37;;;;;;;41.95;8.02;;;;;;;;;;5077860;28;20024;-76
2022/04/05 04:57:07;;;;;;;32.53;8.15;;;;;;;;;;5073429;22;20049;-75
2022/04/05 04:59:39;;;;;;;30.38;8.57;;;;;;;;;;5060132;28;20381;-75
2022/04/05 05:02:07;;;;;;;22.88;7.03;;;;;;;;;;5103806;22;20059;-76
2022/04/05 05:04:37;;;;;;;31.25;9.98;;;;;;;;;;5092445;28;20016;-75
2022/04/05 05:07:06;;;;;;;43.40;8.80;;;;;;;;;;5094026;28;20046;-75
2022/04/05 05:09:35;;;;;;;43.28;8.60;;;;;;;;;;5070497;28;20069;-74
2022/04/05 05:12:14;;;;;;;33.58;10.43;;;;;;;;;;5079518;28;20026;-75
2022/04/05 05:14:44;;;;;;;44.15;13.20;;;;;;;;;;5078873;28;20020;-74
2022/04/05 05:17:10;;;;;;;37.78;10.40;;;;;;;;;;5096207;28;20090;-75
2022/04/05 05:19:36;;;;;;;49.08;8.68;;;;;;;;;;5096284;28;20016;-74
2022/04/05 05:22:03;;;;;;;38.63;9.98;;;;;;;;;;5095755;28;20325;-75
2022/04/05 05:24:31;;;;;;;27.00;8.80;;;;;;;;;;5079220;28;20028;-75
2022/04/05 05:27:02;;;;;;;45.28;11.27;;;;;;;;;;5078231;28;20036;-74
2022/04/05 05:29:32;;;;;;;52.00;14.47;;;;;;;;;;5078734;28;20027;-75
2022/04/05 05:32:03;;;;;;;32.63;10.85;;;;;;;;;;5145634;22;20097;-75
2022/04/05 05:34:31;;;;;;;29.35;9.63;;;;;;;;;;5058119;28;20019;-75
2022/04/05 05:36:57;;;;;;;45.53;10.00;;;;;;;;;;5074691;28;20210;-74
2022/04/05 05:39:24;;;;;;;51.33;9.80;;;;;;;;;;5058291;28;20119;-74
2022/04/05 05:41:53;;;;;;;34.80;9.82;;;;;;;;;;5075088;28;20048;-74
2022/04/05 05:44:19;;;;;;;44.97;8.82;;;;;;;;;;5074654;28;20021;-73
2022/04/05 05:46:45;;;;;;;30.08;6.38;;;;;;;;;;5075345;28;20025;-75
2022/04/05 05:49:14;;;;;;;29.77;8.52;;;;;;;;;;5074443;28;20028;-77
2022/04/05 05:51:42;;;;;;;29.10;7.82;;;;;;;;;;5054694;28;20109;-77
2022/04/05 05:54:13;;;;;;;25.95;7.10;;;;;;;;;;5056521;28;20379;-74
2022/04/05 05:56:42;;;;;;;36.33;7.95;;;;;;;;;;5055659;28;20017;-75
2022/04/05 05:59:10;;;;;;;33.38;9.70;;;;;;;;;;5072192;28;20016;-75
2022/04/05 06:01:38;;;;;;;34.85;8.75;;;;;;;;;;5057297;28;20027;-73
2022/04/05 06:04:05;;;;;;;53.75;10.32;;;;;;;;;;5075356;28;20024;-75
2022/04/05 06:06:34;;;;;;;31.58;7.60;;;;;;;;;;5072992;28;20034;-75
2022/04/05 06:09:03;;;;;;;19.02;5.45;;;;;;;;;;5056685;28;20032;-74
2022/04/05 06:11:32;;;;;;;42.03;10.00;;;;;;;;;;5073158;28;20476;-74
2022/04/05 06:13:58;;;;;;;35.10;6.63;;;;;;;;;;5073629;28;20040;-75
2022/04/05 06:16:26;;;;;;;32.22;6.10;;;;;;;;;;5074252;28;20102;-75
2022/04/05 06:18:54;;;;;;;45.25;6.70;;;;;;;;;;5057484;28;20465;-75
2022/04/05 06:21:22;;;;;;;29.38;7.40;;;;;;;;;;5074073;28;20341;-74
2022/04/05 06:23:48;;;;;;;24.90;5.88;;;;;;;;;;5077038;28;20013;-74
2022/04/05 06:26:14;;;;;;;17.80;6.53;;;;;;;;;;5087859;28;20043;-74
2022/04/05 06:28:41;;;;;;;23.95;4.80;;;;;;;;;;5060576;28;20016;-74
2022/04/05 06:31:09;;;;;;;26.88;7.45;;;;;;;;;;5058048;28;20417;-75
2022/04/05 06:33:35;;;;;;;19.33;6.78;;;;;;;;;;5073844;28;20220;-74
2022/04/05 06:36:07;;;;;;;26.63;5.13;;;;;;;;;;5073321;28;20025;-76
2022/04/05 06:38:33;;;;;;;14.57;4.00;;;;;;;;;;5056598;28;20077;-76
2022/04/05 06:41:00;;;;;;;28.88;5.90;;;;;;;;;;5074230;28;20020;-74
2022/04/05 06:43:32;;;;;;;24.33;5.10;;;;;;;;;;5074643;28;20065;-74
2022/04/05 06:46:03;;;;;;;25.63;5.85;;;;;;;;;;5057455;28;20210;-74
2022/04/05 06:48:34;;;;;;;26.60;7.40;;;;;;;;;;5056752;28;20329;-73
2022/04/05 06:51:05;;;;;;;18.67;6.65;;;;;;;;;;5059160;28;20337;-74
2022/04/05 06:53:35;;;;;;;23.23;5.72;;;;;;;;;;5057234;28;20122;-74
2022/04/05 06:56:06;;;;;;;17.45;4.10;;;;;;;;;;5056753;28;20031;-74
2022/04/05 06:58:36;;;;;;;21.70;6.15;;;;;;;;;;5074775;28;20024;-74
2022/04/05 07:01:06;;;;;;;;;;;;;;;;;;5057744;28;20094;-73
2022/04/05 07:03:34;;;;;;;49.17;8.88;;;;;;;;;;5058440;28;19999;-74
2022/04/05 07:06:00;;;;;;;21.20;6.97;;;;;;;;;;5057322;28;20127;-75
2022/04/05 07:08:29;;;;;;;21.42;7.00;;;;;;;;;;5075281;28;20078;-75
2022/04/05 07:10:55;;;;;;;19.40;5.60;;;;;;;;;;5073976;28;20198;-74
2022/04/05 07:13:21;;;;;;;23.17;7.95;;;;;;;;;;5074644;28;20016;-74
2022/04/05 07:15:52;;;;;;;32.13;6.82;;;;;;;;;;5075708;28;20387;-73
2022/04/05 07:18:30;;;;;;;25.13;6.25;;;;;;;;;;5073696;28;20017;-75
2022/04/05 07:20:56;;;;;;;28.60;6.68;;;;;;;;;;5073150;28;20342;-73
2022/04/05 07:23:22;;;;;;;24.58;5.35;;;;;;;;;;5074334;28;20017;-74
2022/04/05 07:25:48;;;;;;;20.63;4.88;;;;;;;;;;5057251;28;20074;-73
2022/04/05 07:28:15;;;;;;;28.83;4.40;;;;;;;;;;5057412;28;20016;-72
2022/04/05 07:30:42;;;;;;;19.25;3.97;;;;;;;;;;5073464;28;20024;-72
2022/04/05 07:33:11;;;;;;;22.25;4.88;;;;;;;;;;5072509;28;20024;-73
2022/04/05 07:35:38;;;;;;;34.70;6.70;;;;;;;;;;5056198;28;20165;-72
2022/04/05 07:38:04;;;;;;;31.27;4.65;;;;;;;;;;5073242;28;20103;-74
2022/04/05 07:40:47;;;;;;;25.40;5.18;;;;;;;;;;5077061;28;20043;-72
2022/04/05 07:43:22;;;;;;;21.48;5.70;;;;;;;;;;5083586;28;20040;-72
2022/04/05 07:45:49;;;;;;;22.52;5.38;;;;;;;;;;5056875;28;20044;-73
2022/04/05 07:48:17;;;;;;;25.90;5.35;;;;;;;;;;5072867;28;20055;-72
2022/04/05 07:50:48;;;;;;;49.95;8.73;;;;;;;;;;5073052;28;20031;-73
2022/04/05 07:53:18;;;;;;;39.95;9.68;;;;;;;;;;5073666;28;20016;-73
2022/04/05 07:55:46;;;;;;;18.50;5.80;;;;;;;;;;5058223;28;20397;-72
2022/04/05 07:58:13;;;;;;;17.80;4.20;;;;;;;;;;5073568;28;20059;-73
2022/04/05 08:00:39;;;;;;;22.75;5.72;;;;;;;;;;5072870;28;20078;-73
2022/04/05 08:03:06;;;;;;;18.13;4.63;;;;;;;;;;5074376;28;20017;-73
2022/04/05 08:05:32;;;;;;;21.30;5.32;;;;;;;;;;5057198;28;20119;-72
2022/04/05 08:07:59;;;;;;;20.80;5.38;;;;;;;;;;5057123;28;20024;-73
2022/04/05 08:10:30;;;;;;;18.88;3.90;;;;;;;;;;5072833;28;20078;-73
2022/04/05 08:13:00;;;;;;;15.63;4.53;;;;;;;;;;5056947;28;20081;-73
2022/04/05 08:15:26;;;;;;;16.75;4.30;;;;;;;;;;5074856;28;20322;-73
2022/04/05 08:17:53;;;;;;;27.67;8.40;;;;;;;;;;5057546;28;20103;-73
2022/04/05 08:20:20;;;;;;;27.38;5.35;;;;;;;;;;5073079;28;20419;-72
2022/04/05 08:22:48;;;;;;;24.38;5.93;;;;;;;;;;5058799;28;20048;-73
2022/04/05 08:25:15;;;;;;;28.98;5.97;;;;;;;;;;5061191;28;20306;-72
2022/04/05 08:27:42;;;;;;;20.40;4.72;;;;;;;;;;5077809;28;20319;-72
2022/04/05 08:30:15;;;;;;;14.63;4.15;;;;;;;;;;5092400;22;20047;-72
2022/04/05 08:32:42;;;;;;;17.35;6.28;;;;;;;;;;5099301;28;20023;-73
2022/04/05 08:35:12;;;;;;;15.80;5.32;;;;;;;;;;5099439;28;20254;-73
2022/04/05 08:37:39;;;;;;;31.67;6.80;;;;;;;;;;5099295;28;20016;-73
2022/04/05 08:40:07;;;;;;;17.73;4.40;;;;;;;;;;5081681;28;20061;-73
2022/04/05 08:42:37;;;;;;;23.65;5.05;;;;;;;;;;5098266;28;20417;-72
2022/04/05 08:45:06;;;;;;;19.08;4.95;;;;;;;;;;5081288;28;20107;-74
2022/04/05 08:47:36;;;;;;;20.58;5.57;;;;;;;;;;5098430;28;20165;-72
2022/04/05 08:50:17;;;;;;;21.05;5.68;;;;;;;;;;5098566;28;20116;-74
2022/04/05 08:52:44;;;;;;;14.88;5.13;;;;;;;;;;5097866;28;20019;-75
2022/04/05 08:55:10;;;;;;;16.08;3.42;;;;;;;;;;5100152;28;20019;-74
2022/04/05 08:57:37;;;;;;;32.15;6.05;;;;;;;;;;5083366;28;20020;-75
2022/04/05 09:00:05;;;;;;;27.95;4.72;;;;;;;;;;5115182;28;20046;-73
2022/04/05 09:02:31;;;;;;;25.83;5.30;;;;;;;;;;5098056;28;20338;-74
2022/04/05 09:04:57;;;;;;;21.75;7.68;;;;;;;;;;5098427;28;20028;-75
2022/04/05 09:07:28;;;;;;;17.77;6.13;;;;;;;;;;5098797;28;20028;-73
2022/04/05 09:09:54;;;;;;;;;;;;;;;;;;5082091;28;20031;-75
2022/04/05 09:12:21;;;;;;;26.95;5.70;;;;;;;;;;5081750;28;19911;-74
2022/04/05 09:14:50;;;;;;;25.63;7.40;;;;;;;;;;5097735;28;20023;-75
2022/04/05 09:17:17;;;;;;;19.23;4.03;;;;;;;;;;5098610;28;20352;-75
2022/04/05 09:19:48;;;;;;;16.73;5.15;;;;;;;;;;5082570;28;20028;-76
2022/04/05 09:22:30;;;;;;;19.48;5.05;;;;;;;;;;5082230;28;20104;-76
2022/04/05 09:25:02;;;;;;;26.52;5.25;;;;;;;;;;5083098;28;20028;-74
2022/04/05 09:27:41;;;;;;;21.30;5.43;;;;;;;;;;5098881;28;20463;-75
2022/04/05 09:30:10;;;;;;;41.28;7.07;;;;;;;;;;5081833;28;20028;-75
2022/04/05 09:32:39;;;;;;;29.97;4.93;;;;;;;;;;5100163;28;20023;-76
2022/04/05 09:35:06;;;;;;;27.90;5.13;;;;;;;;;;5080867;28;20341;-75
2022/04/05 09:37:42;;;;;;;30.48;5.45;;;;;;;;;;5098528;28;20245;-76
2022/04/05 09:40:14;;;;;;;20.05;4.45;;;;;;;;;;5099530;28;20043;-74
2022/04/05 09:42:59;;;;;;;21.20;5.55;;;;;;;;;;5099130;28;20073;-74
2022/04/05 09:45:43;;;;;;;31.75;7.38;;;;;;;;;;5100202;28;20024;-76
2022/04/05 09:48:09;;;;;;;18.85;5.75;;;;;;;;;;5097984;28;20030;-75
2022/04/05 09:50:54;;;;;;;19.65;5.55;;;;;;;;;;5105757;22;20037;-83
2022/04/05 09:53:20;;;;;;;28.65;6.95;;;;;;;;;;5090080;28;20040;-82
2022/04/05 09:55:47;;;;;;;24.05;5.25;;;;;;;;;;5081830;28;20031;-82
2022/04/05 09:58:14;;;;;;;34.53;9.48;;;;;;;;;;5062497;28;20021;-82
2022/04/05 10:00:41;;;;;;;19.60;5.32;;;;;;;;;;5079468;28;20027;-82
2022/04/05 10:03:11;;;;;;;26.35;5.68;;;;;;;;;;5094156;22;20043;-72
2022/04/05 10:05:38;;;;;;;22.08;5.53;;;;;;;;;;5099188;28;20042;-73
2022/04/05 10:08:06;;;;;;;17.15;4.38;;;;;;;;;;5100918;28;20413;-72
2022/04/05 10:10:32;;;;;;;26.27;4.70;;;;;;;;;;5099019;28;20031;-73
2022/04/05 10:12:58;;;;;;;29.15;5.80;;;;;;;;;;5099150;28;20027;-72
2022/04/05 10:15:25;;;;;;;15.68;4.30;;;;;;;;;;5099888;28;20020;-72
2022/04/05 10:17:54;;;;;;;41.25;4.90;;;;;;;;;;5098502;28;20051;-73
2022/04/05 10:20:20;;;;;;;20.63;5.63;;;;;;;;;;5098225;28;20099;-73
2022/04/05 10:22:56;;;;;;;24.85;5.75;;;;;;;;;;5098737;28;20016;-73
2022/04/05 10:25:24;;;;;;;21.58;4.38;;;;;;;;;;5097567;28;20016;-72
2022/04/05 10:27:50;;;;;;;18.67;6.20;;;;;;;;;;5098789;28;20059;-72
2022/04/05 10:30:25;;;;;;;20.83;5.50;;;;;;;;;;5099031;28;20045;-72
2022/04/05 10:33:07;;;;;;;32.65;7.70;;;;;;;;;;5099610;28;20039;-73
2022/04/05 10:35:41;;;;;;;26.55;6.22;;;;;;;;;;5098853;28;20016;-74
2022/04/05 10:38:19;;;;;;;7.85;3.15;;;;;;;;;;5097029;28;20077;-73
2022/04/05 10:41:03;;;;;;;17.60;3.65;;;;;;;;;;5098972;28;20020;-74
2022/04/05 10:43:29;;;;;;;20.77;3.72;;;;;;;;;;5080363;28;20027;-72
2022/04/05 10:45:55;;;;;;;19.92;5.55;;;;;;;;;;5095734;28;20118;-72
2022/04/05 10:48:26;;;;;;;16.40;4.97;;;;;;;;;;5098563;28;20052;-72
2022/04/05 10:51:01;;;;;;;21.90;4.22;;;;;;;;;;5097997;28;20016;-73
2022/04/05 10:53:31;;;;;;;17.02;3.72;;;;;;;;;;5097928;28;20328;-72
2022/04/05 10:56:03;;;;;;;17.52;3.80;;;;;;;;;;5097177;28;20023;-72
2022/04/05 10:58:33;;;;;;;20.17;4.35;;;;;;;;;;5100058;28;20016;-72
2022/04/05 11:01:31;;;;;;;27.08;4.80;;;;;;;;;;5099906;28;20020;-73
2022/04/05 11:04:09;;;;;;;17.85;4.30;;;;;;;;;;5064162;28;20062;-73
2022/04/05 11:06:54;;;;;;;21.48;5.03;;;;;;;;;;5096941;28;20081;-73
2022/04/05 11:09:25;;;;;;;14.73;4.15;;;;;;;;;;5098007;28;20027;-72
2022/04/05 11:11:53;;;;;;;33.10;6.07;;;;;;;;;;5096467;28;20027;-72
2022/04/05 11:14:38;;;;;;;21.42;5.70;;;;;;;;;;5097978;28;20024;-73
2022/04/05 11:17:08;;;;;;;16.75;4.95;;;;;;;;;;5096787;28;20482;-72
2022/04/05 11:19:35;;;;;;;27.60;5.07;;;;;;;;;;5097939;28;20020;-72
2022/04/05 11:22:05;;;;;;;31.33;7.03;;;;;;;;;;5098493;28;20012;-72
2022/04/05 11:24:50;;;;;;;17.95;3.85;;;;;;;;;;5096913;28;20016;-72
2022/04/05 11:27:28;;;;;;;15.93;3.88;;;;;;;;;;5097438;28;20040;-72
2022/04/05 11:30:12;;;;;;;16.55;5.38;;;;;;;;;;5098411;28;20024;-72
2022/04/05 11:32:38;;;;;;;16.40;4.68;;;;;;;;;;5097054;28;20020;-72
2022/04/05 11:35:04;;;;;;;16.92;5.15;;;;;;;;;;5097697;28;20035;-73
2022/04/05 11:37:34;;;;;;;19.63;4.72;;;;;;;;;;5097157;28;20413;-73
2022/04/05 11:40:01;;;;;;;28.27;6.65;;;;;;;;;;5096403;28;20134;-72
2022/04/05 11:42:27;;;;;;;13.18;5.97;;;;;;;;;;5096590;28;20037;-73
2022/04/05 11:44:54;;;;;;;46.20;8.35;;;;;;;;;;5097570;28;20345;-72
2022/04/05 11:47:20;;;;;;;30.20;7.35;;;;;;;;;;5097281;28;20039;-72
2022/04/05 11:49:46;;;;;;;17.15;5.18;;;;;;;;;;5097597;28;20017;-73
2022/04/05 11:52:12;;;;;;;17.25;3.97;;;;;;;;;;5097622;28;20052;-73
2022/04/05 11:56:00;;;;;;;22.20;6.68;;;;;;;;;;5097521;28;20035;-73
2022/04/05 11:57:25;;;;;;;22.02;7.30;;;;;;;;;;5097077;28;20024;-72
2022/04/05 12:00:03;;;;;;;18.80;5.78;;;;;;;;;;5097538;28;20030;-72
2022/04/05 12:02:29;;;;;;;41.97;7.28;;;;;;;;;;5097427;28;20115;-72
2022/04/05 12:04:55;;;;;;;15.93;4.50;;;;;;;;;;5096095;28;20099;-73
2022/04/05 12:07:23;;;;;;;27.70;5.47;;;;;;;;;;5095921;28;20056;-72
2022/04/05 12:09:49;;;;;;;41.78;7.45;;;;;;;;;;5097181;28;20023;-73
2022/04/05 12:12:15;;;;;;;46.80;7.13;;;;;;;;;;5078914;28;20020;-72
2022/04/05 12:14:41;;;;;;;19.35;4.43;;;;;;;;;;5096043;28;20023;-72
2022/04/05 12:17:07;;;;;;;75.90;9.38;;;;;;;;;;5096612;28;20019;-72
2022/04/05 12:19:34;;;;;;;52.70;9.60;;;;;;;;;;5097196;28;20024;-72
2022/04/05 12:22:07;;;;;;;32.20;6.05;;;;;;;;;;5097060;28;20020;-72
2022/04/05 12:24:34;;;;;;;24.50;6.57;;;;;;;;;;5095929;28;20373;-72
2022/04/05 12:27:01;;;;;;;23.13;7.90;;;;;;;;;;5095277;28;20051;-72
2022/04/05 12:29:28;;;;;;;27.13;6.95;;;;;;;;;;5097184;28;20478;-73
2022/04/05 12:31:54;;;;;;;31.92;6.68;;;;;;;;;;5096503;28;20023;-72
2022/04/05 12:34:21;;;;;;;23.80;4.90;;;;;;;;;;5097010;28;20023;-72
2022/04/05 12:36:52;;;;;;;19.90;4.63;;;;;;;;;;5096353;28;20012;-72
2022/04/05 12:39:25;;;;;;;25.50;5.10;;;;;;;;;;5095513;28;20032;-73
2022/04/05 12:41:56;;;;;;;38.63;7.68;;;;;;;;;;5096660;28;20024;-72
2022/04/05 12:44:26;;;;;;;31.05;6.22;;;;;;;;;;5096213;28;20043;-72
2022/04/05 12:46:53;;;;;;;37.00;7.73;;;;;;;;;;5096958;28;20060;-72
2022/04/05 12:49:34;;;;;;;32.60;7.10;;;;;;;;;;5096294;28;20248;-72
2022/04/05 12:52:19;;;;;;;25.13;7.57;;;;;;;;;;5097189;28;20012;-72
2022/04/05 12:54:45;;;;;;;92.70;12.15;;;;;;;;;;5095405;28;20064;-72
2022/04/05 12:57:19;;;;;;;29.65;7.82;;;;;;;;;;5095710;28;20034;-72
2022/04/05 12:59:46;;;;;;;30.08;6.75;;;;;;;;;;5096544;28;20020;-72
2022/04/05 13:02:25;;;;;;;27.55;7.57;;;;;;;;;;5095574;28;20027;-72
2022/04/05 13:06:19;;;;;;;36.80;6.50;;;;;;;;;;5096966;28;20032;-72
2022/04/05 13:07:54;;;;;;;46.72;7.82;;;;;;;;;;5096022;28;20043;-72
2022/04/05 13:10:20;;;;;;;25.98;8.88;;;;;;;;;;5099301;28;20065;-72
2022/04/05 13:12:48;;;;;;;38.28;8.88;;;;;;;;;;5100398;28;20024;-72
2022/04/05 13:15:14;;;;;;;24.20;6.95;;;;;;;;;;5099284;28;20040;-72
2022/04/05 13:17:40;;;;;;;26.98;8.57;;;;;;;;;;5100383;28;20027;-72
2022/04/05 13:20:07;;;;;;;34.90;9.02;;;;;;;;;;5100242;28;20024;-72
2022/04/05 13:22:33;;;;;;;36.92;8.27;;;;;;;;;;5100335;28;20016;-71
2022/04/05 13:24:59;;;;;;;34.20;9.02;;;;;;;;;;5101155;28;20407;-72
2022/04/05 13:27:26;;;;;;;40.22;12.40;;;;;;;;;;5100610;28;20035;-72
2022/04/05 13:29:52;;;;;;;48.83;11.95;;;;;;;;;;5100149;28;20016;-73
2022/04/05 13:32:19;;;;;;;42.50;12.68;;;;;;;;;;5100157;28;20020;-73
2022/04/05 13:34:45;;;;;;;44.70;13.15;;;;;;;;;;5098896;28;20030;-72
2022/04/05 13:37:19;;;;;;;55.03;14.30;;;;;;;;;;5100104;28;20023;-72
2022/04/05 13:39:49;;;;;;;42.42;10.20;;;;;;;;;;5099996;28;20043;-72
2022/04/05 13:42:15;;;;;;;36.47;9.90;;;;;;;;;;5099398;28;20107;-72
2022/04/05 13:44:41;;;;;;;23.35;10.45;;;;;;;;;;5099975;28;20024;-72
2022/04/05 13:47:08;;;;;;;42.50;12.02;;;;;;;;;;5099834;28;20039;-72
2022/04/05 13:49:34;;;;;;;33.70;11.20;;;;;;;;;;5099917;28;20016;-72
2022/04/05 13:52:00;;;;;;;29.35;10.20;;;;;;;;;;5099731;28;20062;-72
2022/04/05 13:54:26;;;;;;;38.75;11.27;;;;;;;;;;5099646;28;20024;-72
2022/04/05 13:56:52;;;;;;;38.40;10.98;;;;;;;;;;5099662;28;20023;-72
2022/04/05 13:59:18;;;;;;;37.15;13.05;;;;;;;;;;5099700;28;20020;-72
2022/04/05 14:01:44;;;;;;;49.80;14.43;;;;;;;;;;5099619;28;20024;-72
2022/04/05 14:04:10;;;;;;;58.17;15.32;;;;;;;;;;5098620;28;20035;-73
2022/04/05 14:06:36;;;;;;;43.35;14.45;;;;;;;;;;5098142;28;20032;-72
2022/04/05 14:09:03;;;;;;;59.08;17.02;;;;;;;;;;5099473;28;20032;-72
2022/04/05 14:11:29;;;;;;;73.60;21.98;;;;;;;;;;5098322;28;20042;-72
2022/04/05 14:13:56;;;;;;;51.95;17.10;;;;;;;;;;5099411;28;20031;-72
2022/04/05 14:16:22;;;;;;;68.78;19.85;;;;;;;;;;5099234;28;20024;-72
2022/04/05 14:18:48;;;;;;;87.53;24.33;;;;;;;;;;5099248;28;20024;-72
2022/04/05 14:21:14;;;;;;;111.65;26.02;;;;;;;;;;5099071;28;20236;-72
2022/04/05 14:23:41;;;;;;;79.20;23.70;;;;;;;;;;5099228;28;20024;-72
2022/04/05 14:26:07;;;;;;;107.78;29.23;;;;;;;;;;5099049;28;20082;-72
2022/04/05 14:28:33;;;;;;;73.38;20.95;;;;;;;;;;5099109;28;20020;-72
2022/04/05 14:30:59;;;;;;;72.35;24.88;;;;;;;;;;5099113;28;20020;-72
2022/04/05 14:33:25;;;;;;;68.38;21.02;;;;;;;;;;5098516;28;20432;-72
2022/04/05 14:35:51;;;;;;;75.30;23.02;;;;;;;;;;5098894;28;20065;-72
2022/04/05 14:38:17;;;;;;;100.97;27.13;;;;;;;;;;5099191;28;20016;-72
2022/04/05 14:40:43;;;;;;;82.82;23.88;;;;;;;;;;5098280;28;20061;-72